航空気象通報

ウインドサーファーのための航空気象通報による風予報です。

11/30-12/2の航空気象通報

2016年11月30日 23時06分23秒 | TAF
羽田空港
TAF RJTT 301105Z 3012/0118 36006KT 9999 FEW010 BKN030
  BECMG 0103/0106 22015KT
  BECMG 0112/0115 31006KT
  BECMG 0115/0118 34016KT
日本時間30日21時-1日12時:360度から6ノットの風
12-15時:風が変化
15-21時:220度から15ノットの風
21-24時:風が変化
2日00-03時:340度から16ノットの風


静岡空港
TAF RJNS 301105Z 3012/0118 01006KT 8000 FEW008 BKN012
  TEMPO 3014/3023 FEW005 BKN008
  BECMG 0103/0106 27018KT
日本時間30日21時-1日12時:010度から6ノットの風
12-15時:風が変化
15時-2日03時:270度から18ノットの風


福岡空港
TAF RJFF 301111Z 3012/0118 16008KT 8000 -SHRA FEW010 SCT015 BKN030
  BECMG 3015/3017 31009KT
日本時間30日21時-1日24時:160度から8ノットの風
2日00-02時:風が変化
02-03時:310度から9ノットの風


那覇空港
TAF ROAH 301105Z 3012/0118 10005KT 9999 FEW020 BKN040
  BECMG 0100/0103 04015KT
  TEMPO 0103/0109 3500 SHRA
日本時間30日21時-1日09時:100度から5ノットの風
09-12時:風が変化
12時-2日03時:040度から15ノットの風

但し、1日12-18時の間:ときどき

石垣空港
TAF ROIG 301110Z 3012/0118 06010KT 9999 FEW010 BKN040
  TEMPO 3022/0103 3500 SHRA
  BECMG 0103/0106 03022KT
  TEMPO 0103/0118 02023G33KT
日本時間30日21時-1日12時:060度から10ノットの風
12-15時:風が変化
15時-2日03時:030度から22ノットの風
但し、1日12時-2日03時の間:ときどき020度から23ノット、突風33ノット

但し、1日07-12時の間:ときどき

マウイのカフルイ空港
PHOG 301120Z 3012/0112 05011G17KT P6SM VCSH SCT035 BKN050
  TEMPO 3012/3016 05006KT
  FM302000 05020G30KT P6SM VCSH SCT030 BKN050
  FM010500 05012G19KT P6SM VCSH SCT030 BKN050 AMD LTD TO VIS AND WIND TIL 301600
ハワイ時間30日02-10時:050度から11ノット、突風17ノット
但し、02-06時の間:ときどき050度から6ノットの風
10-19時:050度から20ノット、突風30ノット
19時-1日02時:050度から12ノット、突風19ノット


サイパン空港
TAF PGSN 301140Z 3012/0112 07016G26KT P6SM SCT025 SCT040
FM301800 07015G25KT P6SM VCSH SCT020 BKN050
TEMPO 3020/3024 3SM SHRA BKN018 BKN035
FM010000 07016G26KT P6SM VCSH SCT020 SCT050 BKN080
TEMPO 0100/0103 4SM SHRA BKN020 BKN040
マリアナ時間30日22時-1日04時:070度から16ノット、突風26ノット

04-10時:070度から15ノット、突風25ノット
10-22時:070度から16ノット、突風26ノット

但し、1日06-13時の間:ときどき


コメント
この記事をはてなブックマークに追加

11/29-12/1の航空気象通報

2016年11月29日 23時49分44秒 | TAF
羽田空港
TAF RJTT 291105Z 2912/3018 03012KT 9999 FEW030
  BECMG 3003/3006 10008KT
  BECMG 3009/3012 36008KT
日本時間29日21時-30日12時:030度から12ノットの風
12-15時:風が変化
15-18時:100度から8ノットの風
18-21時:風が変化
21時-1日03時:360度から8ノットの風


静岡空港
TAF RJNS 291105Z 2912/3018 34005KT 9999 FEW020 SCT040
  BECMG 3000/3003 05006KT
  TEMPO 3015/3018 FEW005 BKN008
  BECMG 3015/3018 01005KT
日本時間29日21時-30日09時:340度から5ノットの風
09-12時:風が変化
12-24時:050度から6ノットの風
1日00-03時:風が変化
03時:010度から5ノットの風

但し、1日00-03時の間:ときどき

福岡空港
TAF RJFF 291108Z 2912/3018 13005KT 9999 FEW035
  BECMG 3015/3018 29010KT
日本時間29日21時-30日24時:130度から5ノットの風
1日00-03時:風が変化
03時:290度から10ノットの風


那覇空港
TAF ROAH 291105Z 2912/3018 06008KT 9999 FEW030
  BECMG 2921/2923 11010KT
  BECMG 3012/3015 08006KT
日本時間29日21時-30日06時:060度から8ノットの風
06-08時:風が変化
08-21時:110度から10ノットの風
21-24時:風が変化
1日00-03時:080度から6ノットの風


石垣空港
TAF ROIG 291109Z 2912/3018 07013KT 9999 SCT030 BKN045
  TEMPO 3015/3018 4000 SHRA
日本時間29日21時-1日03時:070度から13ノットの風

但し、1日00-03時の間:ときどき

マウイのカフルイ空港
PHOG 291138Z 2912/3012 05010KT P6SM FEW030 SCT050
  FM292000 05021G32KT P6SM FEW030 SCT050
  FM300500 05017G25KT P6SM VCSH SCT030 BKN050
  FM300800 05012G18KT P6SM VCSH SCT030 BKN050 AMD LTD TO VIS AND WIND TIL 291600
ハワイ時間29日02-10時:050度から10ノットの風
10-19時:050度から21ノット、突風32ノット

19-22時:050度から17ノット、突風25ノット
22時-30日02時:050度から12ノット、突風18ノット


サイパン空港
TAF PGSN 291120Z 2912/3012 06013KT P6SM VCSH SCT020
  FM300100 08016G26KT P6SM VCSH SCT022 SCT050
マリアナ時間29日22時-30日11時:060度から13ノットの風
11-22時:080度から16ノット、突風26ノット
コメント
この記事をはてなブックマークに追加

11/28-11/30の航空気象通報

2016年11月28日 21時51分06秒 | TAF
羽田空港
TAF RJTT 281105Z 2812/2918 34016KT 9999 FEW030 BKN050
日本時間28日21時-30日03時:340度から16ノットの風


静岡空港
TAF RJNS 281106Z 2812/2918 34006KT 9999 FEW020 SCT040
BECMG 2903/2906 26012KT
BECMG 2909/2912 34006KT
日本時間28日21時-29日12時:340度から6ノットの風
12-15時:風が変化
15-18時:260度から12ノットの風
18-21時:風が変化
21時-30日03時:340度から6ノットの風


福岡空港
TAF RJFF 281105Z 2812/2918 14005KT 9999 FEW035
BECMG 2900/2903 03007KT
BECMG 2912/2915 14005KT
日本時間28日21時-29日09時:140度から5ノットの風
09-12時:風が変化
12-21時:030度から7ノットの風
21-24時:風が変化
30日00-03時:140度から12ノットの風


那覇空港
TAF ROAH 281106Z 2812/2918 04012KT 9999 SCT035
日本時間28日21時-30日03時:040度から12ノットの風


石垣空港
TAF ROIG 281108Z 2812/2918 04016KT 9999 FEW030 BKN045
日本時間28日21時-30日03時:040度から16ノットの風


マウイのカフルイ空港
PHOG 281136Z 2812/2912 14006KT P6SM FEW030 SCT050
FM282000 08018G26KT P6SM FEW030 SCT050
FM290500 07011G17KT P6SM FEW030 SCT050 AMD LTD TO VIS AND WIND TIL 281600
ハワイ時間28日02-10時:140度から6ノットの風
10-19時:080度から18ノット、突風26ノット
19時-29日02時:070度から11ノット、突風17ノット


サイパン空港
TAF PGSN 281120Z 2812/2912 08011KT P6SM VCSH SCT020 SCT110
マリアナ時間28日22時-29日22時:080度から11ノットの風

コメント
この記事をはてなブックマークに追加

11/27-11/29の航空気象通報

2016年11月27日 21時50分42秒 | TAF
羽田空港
TAF RJTT 271106Z 2712/2818 35008KT 8000 FEW008 BKN013
TEMPO 2712/2718 4000 RA BR FEW005 BKN008
BECMG 2800/2803 34020KT
日本時間27日21時-28日09時:350度から8ノットの風
09-12時:風が変化
12時-29日03時:340度から20ノットの風

但し、27日21時-28日03時の間:ときどき

静岡空港
TAF RJNS 271106Z 2712/2818 32004KT 3000 -RA BR FEW004 BKN008
TEMPO 2712/2718 0500 -RA FG VV002
BECMG 2718/2720 27014KT 9999 NSW FEW020 SCT050
BECMG 2812/2815 33006KT
日本時間27日21時-28日03時:320度から4ノットの風
03-05時:風が変化
05-21時:270度から14ノットの風
21-24時:風が変化
29日00-03時:330度から6ノットの風
、28日03-05時の後、

福岡空港
TAF RJFF 271108Z 2712/2818 33011KT 9999 FEW030 BKN040
BECMG 2809/2812 16003KT
日本時間27日21時-28日18時:330度から11ノットの風
18-21時:風が変化
21時-29日03時:160度から3ノットの風


那覇空港
TAF ROAH 271107Z 2712/2818 01017KT 9000 -RA FEW015 BKN025
日本時間27日21時-29日03時:010度から17ノットの風


石垣空港
TAF ROIG 271109Z 2712/2818 03018KT 9999 -RA FEW010 BKN030
日本時間27日21時-29日03時:030度から18ノットの風


マウイのカフルイ空港
PHOG 271136Z 2712/2812 VRB06KT P6SM FEW030 SCT050
FM272000 08020G30KT P6SM FEW030 SCT050
FM280500 08010G18KT P6SM FEW030 SCT050 AMD LTD TO VIS AND WIND TIL 271600
ハワイ時間27日02-10時:風向不定6ノットの風
10-19時:080度から20ノット、突風30ノット
19時-28日02時:080度から10ノット、突風18ノット


サイパン空港
TAF PGSN 271126Z 2712/2812 08012KT P6SM VCSH SCT022 SCT050 BKN110
マリアナ時間27日22時-28日22時:080度から12ノットの風
コメント
この記事をはてなブックマークに追加

11/26-11/28の航空気象通報

2016年11月26日 22時59分09秒 | TAF
羽田空港
TAF RJTT 261105Z 2612/2718 34007KT 9999 FEW020 BKN035
TEMPO 2712/2715 4000 -RA BR FEW005 BKN008
TEMPO 2715/2718 3000 RA BR FEW005 BKN008
日本時間26日21時-28日03時:340度から7ノットの風

但し、27日21時-28日03時の間:ときどき

静岡空港
TAF RJNS 261105Z 2612/2718 34004KT 8000 FEW010 BKN025
TEMPO 2618/2623 4000 SHRA BR FEW004 BKN008
TEMPO 2709/2718 3000 RA BR FEW004 BKN008
日本時間26日21時-28日03時:340度から4ノットの風

但し、27日03-08時の間:ときどき
但し、27日18時-28日03時の間:ときどき

福岡空港
TAF RJFF 261106Z 2612/2718 14003KT 8000 -RA FEW015 SCT020 BKN035
TEMPO 2618/2703 3000 SHRA BR
BECMG 2703/2706 34012KT
TEMPO 2703/2709 4000 -SHRA BR
日本時間26日21時-27日12時:140度から3ノットの風
12-15時:風が変化
15時-28日03時:340度から12ノットの風


那覇空港
TAF ROAH 261111Z 2612/2718 18008KT 9999 FEW025 BKN040
BECMG 2622/2624 31015KT
TEMPO 2622/2701 2000 +TSRA FEW010 BKN020 FEW025CB
BECMG 2701/2703 36025KT
TEMPO 2701/2709 36027G37KT 4000 RA
日本時間26日21時-27日07時:180度から8ノットの風
07-09時:風が変化
09-10時:310度から15ノットの風
10-12時:風が変化
12時-28日03時:360度から25ノットの風
但し、27日10-18時の間:ときどき360度から27ノット、突風37ノット

但し、27日07-10時の間:ときどき
但し、27日10-18時の間:ときどき

石垣空港
TAF ROIG 261114Z 2612/2718 19006KT 9999 FEW015 BKN025
BECMG 2617/2619 36009KT
TEMPO 2617/2621 2000 +TSRA FEW010 BKN020 FEW025CB
BECMG 2620/2622 02024KT
TEMPO 2621/2709 02028G38KT 4000 RA
日本時間26日21時-27日02時:190度から6ノットの風
02-04時:風が変化
04-05時:360度から9ノットの風
05-07時:風が変化
07時-28日03時:020度から24ノットの風
但し、27日06-18時の間:ときどき020度から28ノット、突風38ノット

但し、27日02-06時の間:ときどき
但し、27日06-18時の間:ときどき

マウイのカフルイ空港
PHOG 261126Z 2612/2712 06015G25KT P6SM VCSH SCT030 BKN050
FM262000 06022G32KT P6SM FEW030 SCT050
FM270400 06012G20KT P6SM FEW030 SCT050
FM270800 07008KT P6SM FEW030 SCT050 AMD LTD TO VIS AND WIND TIL 261600
ハワイ時間26日02-10時:060度から15ノット、突風25ノット

10-18時:060度から22ノット、突風32ノット
18-22時:060度から12ノット、突風20ノット
22時-27日02時:070度から8ノッの風


サイパン空港
TAF PGSN 261120Z 2612/2712 08013KT P6SM VCSH FEW020 SCT070
FM270100 08015G22KT P6SM VCSH SCT020
マリアナ時間26日22時-27日11時:080度から13ノットの風
11-22時:080度から15ノット、突風22ノット

コメント
この記事をはてなブックマークに追加